createdAt,value
2018-05-06T00:01:28.608Z,99.90
2018-05-06T00:03:58.355Z,99.90
2018-05-06T00:06:28.143Z,99.90
2018-05-06T00:08:58.083Z,99.90
2018-05-06T00:11:28.680Z,99.90
2018-05-06T00:13:58.520Z,99.90
2018-05-06T00:16:28.280Z,99.90
2018-05-06T00:18:58.805Z,99.90
2018-05-06T00:21:28.852Z,99.90
2018-05-06T00:23:58.659Z,99.90
2018-05-06T00:26:28.396Z,99.90
2018-05-06T00:28:58.159Z,99.90
2018-05-06T00:31:27.997Z,99.90
2018-05-06T00:33:57.471Z,99.90
2018-05-06T00:36:27.278Z,99.90
2018-05-06T00:38:56.785Z,99.90
2018-05-06T00:41:26.286Z,99.90
2018-05-06T00:43:56.097Z,99.90
2018-05-06T00:46:25.911Z,99.90
2018-05-06T00:48:55.830Z,99.90
2018-05-06T00:51:25.612Z,99.90
2018-05-06T00:53:55.390Z,99.90
2018-05-06T00:56:25.135Z,99.90
2018-05-06T00:58:55.730Z,99.90
2018-05-06T01:01:25.516Z,99.90
2018-05-06T01:03:55.426Z,99.90
2018-05-06T01:06:24.994Z,99.90
2018-05-06T01:08:54.743Z,99.90
2018-05-06T01:11:24.551Z,99.90
2018-05-06T01:13:55.082Z,99.90
2018-05-06T01:16:24.606Z,99.90
2018-05-06T01:18:54.396Z,99.90
2018-05-06T01:21:24.903Z,99.90
2018-05-06T01:23:55.430Z,99.90
2018-05-06T01:26:25.986Z,99.90
2018-05-06T01:28:55.765Z,99.90
2018-05-06T01:31:25.284Z,99.90
2018-05-06T01:33:55.868Z,99.90
2018-05-06T01:36:25.628Z,99.90
2018-05-06T01:38:56.173Z,99.90
2018-05-06T01:41:25.931Z,99.90
2018-05-06T01:43:55.955Z,99.90
2018-05-06T01:46:25.693Z,99.90
2018-05-06T01:48:56.220Z,99.90
2018-05-06T01:51:25.956Z,99.90
2018-05-06T01:53:55.741Z,99.90
2018-05-06T01:56:25.488Z,99.90
2018-05-06T01:58:55.263Z,99.90
2018-05-06T02:01:25.034Z,99.90
2018-05-06T02:03:54.508Z,99.90
2018-05-06T02:06:25.036Z,99.90
2018-05-06T02:08:55.540Z,99.90
2018-05-06T02:11:25.336Z,99.90
2018-05-06T02:13:55.120Z,99.90
2018-05-06T02:16:24.860Z,99.90
2018-05-06T02:18:54.317Z,99.90
2018-05-06T02:21:24.044Z,99.90
2018-05-06T02:23:53.787Z,99.90
2018-05-06T02:26:23.590Z,99.90
2018-05-06T02:28:53.378Z,99.90
2018-05-06T02:31:22.808Z,99.90
2018-05-06T02:33:52.609Z,99.90
2018-05-06T02:36:22.336Z,99.90
2018-05-06T02:38:52.140Z,99.90
2018-05-06T02:41:21.905Z,99.90
2018-05-06T02:43:52.471Z,99.90
2018-05-06T02:46:22.274Z,99.90
2018-05-06T02:48:52.021Z,99.90
2018-05-06T02:51:22.278Z,99.90
2018-05-06T02:53:52.497Z,99.90
2018-05-06T02:56:23.053Z,99.90
2018-05-06T02:58:52.820Z,99.90
2018-05-06T03:01:22.600Z,99.90
2018-05-06T03:03:52.359Z,99.90
2018-05-06T03:06:22.864Z,99.90
2018-05-06T03:08:52.611Z,99.90
2018-05-06T03:11:22.116Z,99.90
2018-05-06T03:13:52.650Z,99.90
2018-05-06T03:16:22.974Z,99.90
2018-05-06T03:18:53.489Z,99.90
2018-05-06T03:21:24.049Z,99.90
2018-05-06T03:23:53.793Z,99.90
2018-05-06T03:26:23.572Z,99.90
2018-05-06T03:28:53.344Z,99.90
2018-05-06T03:31:23.114Z,99.90
2018-05-06T03:33:53.007Z,99.90
2018-05-06T03:36:22.751Z,99.90
2018-05-06T03:39:12.445Z,99.90
2018-05-06T03:41:42.205Z,99.90
2018-05-06T03:44:11.981Z,99.90
2018-05-06T03:46:41.745Z,99.90
2018-05-06T03:49:11.509Z,99.90
2018-05-06T03:51:42.054Z,99.90
2018-05-06T03:54:12.602Z,99.90
2018-05-06T03:57:02.331Z,99.90
2018-05-06T03:59:44.000Z,99.90
2018-05-06T04:02:43.026Z,99.90
2018-05-06T04:05:12.848Z,99.90
2018-05-06T04:07:42.614Z,99.90
2018-05-06T04:10:14.067Z,99.90
2018-05-06T04:12:43.844Z,99.90
2018-05-06T04:15:14.389Z,99.90
2018-05-06T04:17:44.922Z,99.90
2018-05-06T04:20:14.705Z,99.90
2018-05-06T04:22:44.480Z,99.90
2018-05-06T04:25:14.238Z,99.90
2018-05-06T04:27:44.777Z,99.90
2018-05-06T04:30:15.104Z,99.90
2018-05-06T04:32:45.399Z,99.90
2018-05-06T04:35:14.854Z,99.90
2018-05-06T04:37:44.604Z,99.90
2018-05-06T04:40:14.415Z,99.90
2018-05-06T04:42:44.181Z,99.90
2018-05-06T04:45:13.938Z,99.90
2018-05-06T04:47:43.686Z,99.90
2018-05-06T04:50:14.233Z,99.90
2018-05-06T04:52:43.995Z,99.90
2018-05-06T04:55:13.755Z,99.90
2018-05-06T04:57:43.522Z,99.90
2018-05-06T05:00:13.304Z,99.90
2018-05-06T05:02:43.104Z,99.90
2018-05-06T05:05:12.888Z,99.90
2018-05-06T05:07:43.440Z,99.90
2018-05-06T05:10:13.230Z,99.90
2018-05-06T05:12:43.758Z,99.90
2018-05-06T05:15:14.325Z,99.90
2018-05-06T05:17:44.049Z,99.90
2018-05-06T05:20:13.605Z,99.90
2018-05-06T05:22:44.131Z,99.90
2018-05-06T05:25:14.684Z,99.90
2018-05-06T05:27:44.121Z,99.90
2018-05-06T05:30:13.880Z,99.90
2018-05-06T05:32:44.387Z,99.90
2018-05-06T05:35:14.225Z,99.90
2018-05-06T05:37:44.052Z,99.90
2018-05-06T05:40:13.968Z,99.90
2018-05-06T05:42:43.758Z,99.90
2018-05-06T05:45:14.291Z,99.90
2018-05-06T05:47:44.120Z,99.90
2018-05-06T05:50:14.003Z,99.90
2018-05-06T05:52:43.795Z,99.90
2018-05-06T05:55:13.267Z,99.90
2018-05-06T05:57:43.046Z,99.90
2018-05-06T06:00:13.559Z,99.90
2018-05-06T06:02:43.327Z,99.90
2018-05-06T06:05:13.132Z,99.90
2018-05-06T06:07:42.298Z,99.90
2018-05-06T06:10:12.048Z,99.90
2018-05-06T06:12:41.799Z,99.90
2018-05-06T06:15:11.580Z,99.90
2018-05-06T06:17:41.341Z,99.90
2018-05-06T06:20:11.983Z,99.90
2018-05-06T06:22:41.909Z,99.90
2018-05-06T06:25:11.420Z,99.90
2018-05-06T06:27:40.968Z,99.90
2018-05-06T06:30:10.746Z,99.90
2018-05-06T06:32:40.556Z,99.90
2018-05-06T06:35:10.027Z,98.70
2018-05-06T06:37:39.498Z,96.60
2018-05-06T06:40:09.775Z,94.70
2018-05-06T06:42:39.243Z,94.70
2018-05-06T06:45:08.455Z,93.50
2018-05-06T06:47:37.927Z,92.20
2018-05-06T06:50:08.209Z,91.60
2018-05-06T06:52:37.711Z,91.60
2018-05-06T06:55:07.305Z,90.20
2018-05-06T06:57:36.766Z,90.50
2018-05-06T07:00:07.081Z,86.80
2018-05-06T07:02:37.095Z,80.30
2018-05-06T07:05:06.636Z,80.20
2018-05-06T07:07:36.176Z,82.80
2018-05-06T07:10:05.666Z,80.90
2018-05-06T07:12:34.920Z,78.00
2018-05-06T07:15:04.469Z,74.50
2018-05-06T07:17:33.954Z,72.30
2018-05-06T07:20:03.464Z,73.30
2018-05-06T07:22:32.956Z,70.80
2018-05-06T07:25:03.206Z,66.00
2018-05-06T07:27:32.711Z,65.80
2018-05-06T07:30:02.232Z,66.60
2018-05-06T07:32:32.722Z,63.20
2018-05-06T07:35:02.250Z,63.30
2018-05-06T07:37:31.756Z,62.50
2018-05-06T07:40:01.283Z,61.80
2018-05-06T07:42:30.848Z,60.10
2018-05-06T07:45:00.369Z,60.00
2018-05-06T07:47:29.879Z,60.00
2018-05-06T07:49:59.501Z,59.90
2018-05-06T07:52:28.992Z,58.70
2018-05-06T07:55:00.080Z,58.70
2018-05-06T07:57:29.990Z,58.70
2018-05-06T07:59:59.636Z,57.80
2018-05-06T08:02:30.101Z,56.70
2018-05-06T08:04:59.591Z,55.90
2018-05-06T08:07:30.599Z,54.80
2018-05-06T08:10:02.727Z,54.80
2018-05-06T08:12:32.383Z,56.30
2018-05-06T08:15:01.877Z,55.00
2018-05-06T08:17:31.464Z,55.50
2018-05-06T08:20:00.965Z,55.90
2018-05-06T08:22:30.480Z,55.30
2018-05-06T08:25:00.615Z,54.80
2018-05-06T08:27:30.921Z,53.30
2018-05-06T08:30:00.388Z,53.30
2018-05-06T08:32:30.723Z,53.50
2018-05-06T08:35:00.220Z,53.50
2018-05-06T08:37:29.766Z,53.20
2018-05-06T08:39:59.423Z,51.20
2018-05-06T08:42:28.951Z,51.00
2018-05-06T08:44:58.453Z,50.80
2018-05-06T08:47:28.012Z,49.70
2018-05-06T08:49:57.551Z,49.60
2018-05-06T08:52:27.068Z,48.90
2018-05-06T08:54:56.582Z,48.40
2018-05-06T08:57:26.255Z,47.30
2018-05-06T08:59:56.515Z,46.60
2018-05-06T09:02:25.980Z,46.40
2018-05-06T09:04:56.244Z,47.20
2018-05-06T09:07:25.789Z,47.10
2018-05-06T09:09:55.293Z,46.80
2018-05-06T09:12:24.776Z,46.90
2018-05-06T09:14:54.264Z,45.90
2018-05-06T09:17:23.436Z,45.30
2018-05-06T09:19:53.697Z,47.50
2018-05-06T09:22:23.202Z,47.50
2018-05-06T09:24:52.736Z,46.10
2018-05-06T09:27:22.267Z,44.00
2018-05-06T09:29:51.764Z,43.30
2018-05-06T09:32:20.928Z,44.60
2018-05-06T09:34:50.590Z,43.20
2018-05-06T09:37:20.913Z,42.20
2018-05-06T09:39:51.182Z,41.00
2018-05-06T09:42:20.674Z,41.00
2018-05-06T09:44:50.204Z,40.80
2018-05-06T09:47:19.720Z,41.20
2018-05-06T09:49:49.253Z,40.60
2018-05-06T09:52:18.753Z,41.50
2018-05-06T09:54:48.259Z,41.90
2018-05-06T09:57:18.045Z,42.30
2018-05-06T09:59:47.569Z,43.10
2018-05-06T10:02:17.093Z,41.50
2018-05-06T10:04:46.582Z,39.80
2018-05-06T10:07:20.397Z,41.40
2018-05-06T10:09:51.323Z,41.40
2018-05-06T10:12:21.719Z,41.90
2018-05-06T10:14:51.239Z,41.90
2018-05-06T10:17:20.792Z,41.20
2018-05-06T10:19:51.084Z,41.50
2018-05-06T10:22:20.694Z,40.00
2018-05-06T10:24:52.185Z,40.10
2018-05-06T10:27:25.265Z,39.90
2018-05-06T10:29:57.464Z,38.60
2018-05-06T10:32:30.102Z,39.60
2018-05-06T10:35:00.512Z,39.30
2018-05-06T10:37:33.245Z,38.70
2018-05-06T10:40:04.056Z,39.30
2018-05-06T10:42:34.497Z,37.70
2018-05-06T10:45:04.959Z,37.60
2018-05-06T10:47:38.809Z,36.80
2018-05-06T10:50:08.789Z,36.50
2018-05-06T10:52:39.535Z,35.80
2018-05-06T10:55:09.787Z,37.40
2018-05-06T10:57:39.321Z,37.30
2018-05-06T11:00:08.876Z,36.50
2018-05-06T11:02:39.124Z,37.40
2018-05-06T11:05:08.622Z,37.40
2018-05-06T11:07:38.093Z,38.50
2018-05-06T11:10:07.668Z,37.00
2018-05-06T11:12:38.111Z,35.50
2018-05-06T11:15:07.639Z,35.40
2018-05-06T11:17:37.149Z,36.70
2018-05-06T11:20:06.623Z,35.60
2018-05-06T11:22:36.093Z,35.60
2018-05-06T11:25:05.236Z,34.70
2018-05-06T11:27:34.718Z,35.10
2018-05-06T11:30:03.635Z,34.40
2018-05-06T11:32:33.179Z,35.50
2018-05-06T11:35:03.216Z,36.20
2018-05-06T11:37:32.729Z,36.90
2018-05-06T11:40:02.238Z,36.60
2018-05-06T11:42:31.763Z,35.90
2018-05-06T11:45:01.340Z,35.50
2018-05-06T11:47:30.831Z,34.70
2018-05-06T11:50:00.349Z,33.50
2018-05-06T11:52:29.809Z,32.70
2018-05-06T11:54:59.338Z,32.30
2018-05-06T11:57:29.607Z,32.50
2018-05-06T11:59:59.079Z,32.50
2018-05-06T12:02:28.554Z,32.70
2018-05-06T12:04:58.816Z,31.60
2018-05-06T12:07:28.333Z,31.60
2018-05-06T12:09:57.899Z,31.40
2018-05-06T12:12:27.500Z,30.90
2018-05-06T12:14:57.823Z,30.60
2018-05-06T12:17:27.308Z,30.60
2018-05-06T12:19:56.815Z,30.90
2018-05-06T12:22:26.339Z,30.00
2018-05-06T12:24:55.799Z,30.80
2018-05-06T12:27:26.101Z,31.80
2018-05-06T12:29:56.231Z,31.80
2018-05-06T12:32:26.550Z,32.10
2018-05-06T12:34:56.034Z,32.00
2018-05-06T12:37:25.505Z,30.80
2018-05-06T12:39:55.023Z,30.30
2018-05-06T12:42:24.317Z,30.00
2018-05-06T12:44:53.816Z,29.60
2018-05-06T12:47:23.087Z,28.70
2018-05-06T12:49:53.342Z,29.20
2018-05-06T12:52:22.815Z,29.20
2018-05-06T12:54:52.001Z,29.60
2018-05-06T12:57:21.463Z,29.30
2018-05-06T12:59:51.020Z,28.90
2018-05-06T13:02:20.608Z,28.70
2018-05-06T13:04:51.001Z,29.20
2018-05-06T13:07:20.517Z,29.20
2018-05-06T13:09:50.024Z,28.60
2018-05-06T13:12:19.516Z,27.90
2018-05-06T13:14:49.020Z,28.00
2018-05-06T13:17:19.271Z,28.60
2018-05-06T13:19:48.754Z,28.50
2018-05-06T13:22:19.058Z,29.40
2018-05-06T13:24:48.583Z,29.40
2018-05-06T13:27:17.865Z,30.20
2018-05-06T13:29:48.111Z,30.40
2018-05-06T13:32:17.387Z,30.30
2018-05-06T13:34:46.660Z,30.60
2018-05-06T13:37:16.172Z,30.20
2018-05-06T13:39:45.643Z,30.20
2018-05-06T13:42:15.180Z,30.10
2018-05-06T13:44:44.659Z,30.20
2018-05-06T13:47:14.185Z,30.40
2018-05-06T13:49:43.734Z,31.40
2018-05-06T13:52:13.391Z,31.20
2018-05-06T13:54:42.897Z,30.60
2018-05-06T13:57:12.163Z,31.00
2018-05-06T13:59:41.668Z,31.50
2018-05-06T14:02:11.160Z,31.70
2018-05-06T14:04:40.681Z,30.50
2018-05-06T14:07:10.183Z,29.40
2018-05-06T14:09:40.273Z,31.60
2018-05-06T14:12:09.809Z,31.60
2018-05-06T14:14:39.328Z,31.20
2018-05-06T14:17:08.832Z,31.60
2018-05-06T14:19:38.350Z,33.10
2018-05-06T14:22:07.866Z,33.90
2018-05-06T14:24:38.121Z,35.00
2018-05-06T14:27:07.631Z,35.00
2018-05-06T14:29:36.827Z,36.20
2018-05-06T14:32:06.406Z,36.60
2018-05-06T14:34:35.861Z,37.30
2018-05-06T14:37:05.367Z,38.80
2018-05-06T14:39:34.915Z,39.10
2018-05-06T14:42:05.222Z,39.20
2018-05-06T14:44:35.526Z,39.70
2018-05-06T14:47:16.125Z,39.60
2018-05-06T14:49:45.376Z,39.50
2018-05-06T14:52:14.840Z,40.70
2018-05-06T14:54:44.408Z,41.70
2018-05-06T14:57:13.909Z,42.20
2018-05-06T14:59:44.996Z,43.00
2018-05-06T15:02:14.483Z,43.00
2018-05-06T15:04:44.769Z,41.60
2018-05-06T15:07:14.268Z,41.60
2018-05-06T15:09:43.771Z,41.50
2018-05-06T15:12:14.189Z,42.50
2018-05-06T15:14:43.688Z,42.70
2018-05-06T15:17:13.151Z,43.30
2018-05-06T15:19:42.707Z,42.90
2018-05-06T15:22:12.237Z,42.80
2018-05-06T15:24:41.731Z,42.80
2018-05-06T15:27:11.259Z,42.10
2018-05-06T15:29:40.787Z,42.10
2018-05-06T15:32:11.096Z,42.80
2018-05-06T15:34:40.775Z,42.10
2018-05-06T15:37:10.303Z,42.80
2018-05-06T15:39:39.843Z,42.80
2018-05-06T15:42:10.088Z,43.90
2018-05-06T15:44:39.251Z,43.80
2018-05-06T15:47:09.768Z,44.00
2018-05-06T15:49:39.326Z,43.90
2018-05-06T15:52:08.826Z,41.90
2018-05-06T15:54:38.380Z,42.60
2018-05-06T15:57:07.539Z,43.20
2018-05-06T15:59:37.076Z,44.00
2018-05-06T16:02:17.868Z,44.20
2018-05-06T16:04:47.126Z,44.30
2018-05-06T16:07:16.624Z,45.30
2018-05-06T16:09:46.171Z,44.80
2018-05-06T16:12:15.679Z,44.80
2018-05-06T16:14:45.208Z,44.70
2018-05-06T16:17:14.730Z,45.60
2018-05-06T16:19:44.219Z,45.20
2018-05-06T16:22:14.158Z,46.10
2018-05-06T16:24:43.668Z,46.00
2018-05-06T16:27:13.160Z,46.20
2018-05-06T16:29:42.777Z,46.70
2018-05-06T16:32:12.397Z,47.10
2018-05-06T16:34:41.882Z,47.20
2018-05-06T16:37:12.111Z,48.00
2018-05-06T16:39:41.402Z,48.00
2018-05-06T16:42:11.631Z,46.70
2018-05-06T16:44:41.130Z,46.70
2018-05-06T16:47:10.647Z,47.50
2018-05-06T16:49:40.225Z,47.20
2018-05-06T16:52:09.964Z,47.50
2018-05-06T16:54:39.833Z,47.50
2018-05-06T16:57:09.409Z,47.50
2018-05-06T16:59:38.919Z,48.00
2018-05-06T17:02:08.393Z,48.00
2018-05-06T17:04:37.959Z,48.70
2018-05-06T17:07:07.508Z,49.20
2018-05-06T17:09:37.039Z,49.40
2018-05-06T17:12:06.551Z,50.00
2018-05-06T17:14:36.930Z,49.40
2018-05-06T17:17:06.140Z,49.30
2018-05-06T17:19:35.628Z,49.60
2018-05-06T17:22:04.899Z,50.70
2018-05-06T17:24:34.534Z,50.80
2018-05-06T17:27:04.002Z,51.20
2018-05-06T17:29:34.260Z,49.90
2018-05-06T17:32:03.531Z,49.90
2018-05-06T17:34:33.835Z,50.10
2018-05-06T17:37:03.356Z,50.60
2018-05-06T17:39:32.895Z,50.30
2018-05-06T17:42:02.367Z,51.00
2018-05-06T17:44:31.210Z,51.20
2018-05-06T17:47:01.004Z,51.90
2018-05-06T17:49:30.134Z,52.20
2018-05-06T17:52:00.303Z,52.00
2018-05-06T17:54:29.453Z,52.00
2018-05-06T17:56:58.994Z,52.40
2018-05-06T17:59:29.298Z,52.50
2018-05-06T18:01:59.596Z,52.40
2018-05-06T18:04:29.120Z,52.30
2018-05-06T18:06:58.311Z,52.70
2018-05-06T18:09:27.798Z,53.10
2018-05-06T18:11:57.349Z,54.40
2018-05-06T18:14:27.618Z,53.30
2018-05-06T18:16:56.833Z,53.30
2018-05-06T18:19:26.355Z,54.10
2018-05-06T18:21:56.658Z,54.70
2018-05-06T18:24:26.214Z,54.70
2018-05-06T18:26:55.715Z,54.90
2018-05-06T18:29:25.970Z,55.60
2018-05-06T18:31:55.505Z,55.50
2018-05-06T18:34:24.705Z,55.70
2018-05-06T18:36:54.183Z,55.80
2018-05-06T18:39:24.383Z,56.30
2018-05-06T18:41:54.666Z,56.70
2018-05-06T18:44:24.168Z,56.50
2018-05-06T18:46:53.698Z,57.00
2018-05-06T18:49:23.203Z,57.10
2018-05-06T18:51:53.517Z,57.20
2018-05-06T18:54:23.021Z,57.60
2018-05-06T18:56:52.656Z,57.90
2018-05-06T18:59:21.912Z,58.20
2018-05-06T19:01:51.560Z,58.50
2018-05-06T19:04:21.806Z,59.10
2018-05-06T19:06:50.793Z,58.90
2018-05-06T19:09:21.059Z,59.60
2018-05-06T19:11:50.584Z,59.60
2018-05-06T19:14:20.097Z,59.80
2018-05-06T19:16:49.281Z,60.00
2018-05-06T19:19:18.447Z,60.30
2018-05-06T19:21:47.964Z,60.30
2018-05-06T19:24:17.459Z,60.90
2018-05-06T19:26:46.711Z,61.40
2018-05-06T19:29:16.436Z,61.20
2018-05-06T19:31:46.723Z,62.50
2018-05-06T19:34:16.249Z,62.50
2018-05-06T19:36:46.224Z,63.00
2018-05-06T19:39:15.735Z,62.90
2018-05-06T19:41:45.264Z,63.00
2018-05-06T19:44:14.757Z,63.10
2018-05-06T19:46:44.231Z,63.10
2018-05-06T19:49:13.771Z,63.30
2018-05-06T19:51:43.277Z,63.70
2018-05-06T19:54:12.488Z,63.80
2018-05-06T19:56:42.520Z,65.20
2018-05-06T19:59:12.002Z,65.20
2018-05-06T20:01:41.472Z,65.70
2018-05-06T20:04:11.032Z,66.00
2018-05-06T20:06:40.573Z,66.30
2018-05-06T20:09:10.073Z,67.20
2018-05-06T20:11:39.296Z,68.60
2018-05-06T20:14:08.843Z,68.50
2018-05-06T20:16:38.278Z,70.20
2018-05-06T20:19:07.779Z,71.60
2018-05-06T20:21:38.134Z,74.30
2018-05-06T20:24:07.789Z,74.30
2018-05-06T20:26:37.850Z,78.20
2018-05-06T20:29:07.527Z,78.20
2018-05-06T20:31:37.047Z,78.90
2018-05-06T20:34:06.277Z,81.60
2018-05-06T20:36:35.776Z,82.90
2018-05-06T20:39:04.614Z,84.70
2018-05-06T20:41:34.617Z,90.90
2018-05-06T20:44:04.413Z,90.90
2018-05-06T20:46:34.377Z,91.30
2018-05-06T20:49:04.643Z,95.00
2018-05-06T20:51:34.107Z,95.00
2018-05-06T20:54:03.546Z,96.40
2018-05-06T20:56:33.272Z,97.90
2018-05-06T20:59:02.684Z,99.40
2018-05-06T21:01:32.127Z,99.90
2018-05-06T21:04:01.904Z,99.90
2018-05-06T21:06:31.506Z,99.90
2018-05-06T21:09:01.982Z,99.90
2018-05-06T21:11:32.221Z,99.90
2018-05-06T21:14:01.991Z,99.90
2018-05-06T21:16:31.452Z,99.90
2018-05-06T21:19:00.917Z,99.90
2018-05-06T21:21:30.357Z,99.90
2018-05-06T21:24:00.910Z,99.90
2018-05-06T21:26:31.441Z,99.90
2018-05-06T21:29:01.178Z,99.90
2018-05-06T21:31:30.949Z,99.90
2018-05-06T21:34:00.880Z,99.90
2018-05-06T21:36:31.388Z,99.90
2018-05-06T21:39:01.762Z,99.90
2018-05-06T21:41:32.076Z,99.90
2018-05-06T21:44:01.825Z,99.90
2018-05-06T21:46:32.366Z,99.90
2018-05-06T21:49:02.091Z,99.90
2018-05-06T21:51:32.621Z,99.90
2018-05-06T21:54:01.746Z,99.90
2018-05-06T21:56:31.240Z,99.90
2018-05-06T21:59:01.771Z,99.90
2018-05-06T22:01:32.282Z,99.90
2018-05-06T22:04:02.014Z,99.90
2018-05-06T22:06:31.238Z,99.90
2018-05-06T22:09:00.841Z,99.90
2018-05-06T22:11:30.341Z,99.90
2018-05-06T22:14:00.601Z,99.90
2018-05-06T22:16:32.014Z,99.90
2018-05-06T22:19:01.502Z,99.90
2018-05-06T22:21:31.772Z,99.90
2018-05-06T22:24:01.622Z,99.90
2018-05-06T22:26:31.342Z,99.90
2018-05-06T22:29:00.888Z,99.90
2018-05-06T22:31:31.124Z,99.90
2018-05-06T22:34:00.872Z,99.90
2018-05-06T22:36:31.122Z,99.90
2018-05-06T22:39:01.555Z,99.90
2018-05-06T22:41:31.179Z,99.90
2018-05-06T22:44:00.810Z,99.90
2018-05-06T22:46:30.906Z,99.90
2018-05-06T22:49:00.405Z,99.90
2018-05-06T22:51:29.854Z,99.90
2018-05-06T22:54:00.107Z,99.90
2018-05-06T22:56:29.571Z,99.90
2018-05-06T22:58:59.353Z,99.90
2018-05-06T23:01:28.779Z,99.90
2018-05-06T23:03:58.723Z,99.90
2018-05-06T23:06:28.486Z,99.90
2018-05-06T23:08:58.230Z,99.90
2018-05-06T23:11:27.969Z,99.90
2018-05-06T23:13:57.919Z,99.90
2018-05-06T23:16:27.677Z,99.90
2018-05-06T23:18:57.387Z,99.90
2018-05-06T23:21:27.188Z,99.90
2018-05-06T23:23:56.936Z,99.90
2018-05-06T23:26:27.518Z,99.90
2018-05-06T23:28:57.416Z,99.90
2018-05-06T23:31:26.896Z,99.90
2018-05-06T23:33:56.639Z,99.90
2018-05-06T23:36:26.371Z,99.90
2018-05-06T23:38:56.117Z,99.90
2018-05-06T23:41:25.998Z,99.90
2018-05-06T23:43:55.713Z,99.90
2018-05-06T23:46:26.930Z,99.90
2018-05-06T23:48:56.687Z,99.90
2018-05-06T23:51:26.392Z,99.90
2018-05-06T23:53:56.125Z,99.90
2018-05-06T23:56:26.656Z,99.90
2018-05-06T23:58:56.018Z,99.90
